Weichang, China
Current Conditions -  °F | °C
As of 5:30 PM on Saturday 29 Nov 2014 (Local Time) from ZBAA Reporting Station
Light Rain Light Rain  
Wind Chill:   Ceiling: Unl
Heat Index:   Visibility: 0.93mi
Dew Point:   Wind: 2mph
Humidity: 87%   Direction: NA
Pressure: 30.12"   Gusts: NA
Location:  41.93°N, 117.75°E
Report Text: ZBAA 290930Z VRB01MPS 1500 -RA BR NSC 04/02 Q1020 NOSIG
Loading
Personal Weather Stations






























Interactive Weather Map New forecast layout! Learn more

10-Day Weather Forecast

Advertisements
Track Severe Weather on mobile